Time;durP1;ratioP1;P1;durP2;ratioP2;P2;SDS_P1;SDS_P2;PMS_P1;PMS_P2;Temp;Humidity;BMP_temperature;BMP_pressure;BME280_temperature;BME280_humidity;BME280_pressure;Samples;Min_cycle;Max_cycle;Signal;HPM_P1;HPM_P2
2023/07/02 00:00:30;;;;;;;7.80;6.00;;;;;;;29.28;84.66;99817.52;106515;1256;61211;-83
2023/07/02 00:03:21;;;;;;;8.50;6.40;;;;;;;29.25;85.37;99820.94;106680;1255;63707;-83
2023/07/02 00:06:10;;;;;;;9.70;6.80;;;;;;;29.35;83.78;99816.63;106723;1256;61218;-83
2023/07/02 00:08:58;;;;;;;9.50;5.80;;;;;;;29.35;83.74;99818.88;106486;1256;61213;-82
2023/07/02 00:11:46;;;;;;;8.20;6.40;;;;;;;29.37;84.65;99817.81;106323;1254;65909;-86
2023/07/02 00:14:34;;;;;;;7.40;5.70;;;;;;;29.41;85.03;99814.84;106453;1253;61436;-84
2023/07/02 00:17:22;;;;;;;7.60;5.50;;;;;;;29.35;86.33;99819.98;106605;1253;62636;-87
2023/07/02 00:20:14;;;;;;;7.50;6.10;;;;;;;29.35;86.74;99820.64;106206;1253;61218;-83
2023/07/02 00:23:03;;;;;;;9.60;7.10;;;;;;;29.27;87.17;99818.02;106469;1254;61284;-83
2023/07/02 00:25:50;;;;;;;13.60;8.50;;;;;;;29.23;87.33;99818.64;106597;1254;66021;-83
2023/07/02 00:28:39;;;;;;;13.20;7.60;;;;;;;29.22;87.19;99819.05;106616;1253;61215;-83
2023/07/02 00:31:27;;;;;;;9.10;6.40;;;;;;;29.25;86.65;99818.52;106719;1256;64195;-86
2023/07/02 00:34:16;;;;;;;8.10;6.30;;;;;;;29.27;86.26;99824.69;106820;1254;61384;-86
2023/07/02 00:37:04;;;;;;;11.80;6.90;;;;;;;29.24;86.13;99822.16;106847;1254;59796;-82
2023/07/02 00:39:52;;;;;;;11.90;6.70;;;;;;;29.16;86.59;99819.69;106749;1253;64749;-83
2023/07/02 00:42:41;;;;;;;9.10;7.30;;;;;;;28.92;88.67;99824.13;106617;1256;61234;-87
2023/07/02 00:45:31;;;;;;;9.60;6.60;;;;;;;28.70;91.29;99821.80;106311;1254;63802;-83
2023/07/02 00:48:19;;;;;;;10.00;7.40;;;;;;;28.65;92.69;99819.92;106371;1254;61250;-82
2023/07/02 00:51:07;;;;;;;8.80;5.90;;;;;;;28.63;93.81;99820.75;106360;1254;61231;-87
2023/07/02 00:53:56;;;;;;;7.20;6.20;;;;;;;28.73;93.43;99818.80;106351;1253;64905;-87
2023/07/02 00:56:45;;;;;;;9.50;7.00;;;;;;;28.66;93.73;99815.11;106349;1256;61235;-87
2023/07/02 00:59:37;;;;;;;9.20;7.10;;;;;;;28.42;95.54;99819.20;106311;1255;63882;-86
2023/07/02 01:02:29;;;;;;;11.20;7.10;;;;;;;28.39;95.88;99817.13;106605;1256;61353;-85
2023/07/02 01:05:21;;;;;;;6.90;6.00;;;;;;;28.28;96.44;99818.84;106600;1254;61249;-84
2023/07/02 01:08:11;;;;;;;8.90;6.10;;;;;;;28.15;97.28;99821.36;106364;1254;66118;-84
2023/07/02 01:10:59;;;;;;;7.50;5.90;;;;;;;28.08;97.27;99820.69;106520;1255;61231;-87
2023/07/02 01:13:48;;;;;;;8.40;5.70;;;;;;;28.10;96.21;99818.42;106396;1257;63854;-83
2023/07/02 01:16:36;;;;;;;6.70;5.80;;;;;;;28.14;95.35;99820.81;106393;1252;61269;-87
2023/07/02 01:19:58;;;;;;;8.20;6.20;;;;;;;28.09;95.48;99817.16;106284;1254;60753;-86
2023/07/02 01:22:46;;;;;;;8.60;6.00;;;;;;;28.05;95.53;99818.24;106592;1256;66887;-86
2023/07/02 01:25:36;;;;;;;7.40;6.40;;;;;;;27.93;96.85;99815.28;106538;1255;61238;-83
2023/07/02 01:28:33;;;;;;;7.40;6.20;;;;;;;27.87;97.95;99812.77;106369;1255;64057;-86
2023/07/02 01:31:24;;;;;;;10.60;7.30;;;;;;;27.87;98.08;99812.20;106428;1255;61349;-82
2023/07/02 01:34:12;;;;;;;8.80;6.70;;;;;;;27.92;97.98;99808.30;106433;1254;61272;-86
2023/07/02 01:37:01;;;;;;;8.20;6.70;;;;;;;27.88;98.79;99802.23;106383;1254;66106;-85
2023/07/02 01:39:50;;;;;;;8.00;6.60;;;;;;;27.86;99.76;99800.81;106435;1254;62045;-83
2023/07/02 01:42:39;;;;;;;8.40;6.40;;;;;;;27.87;99.91;99801.27;106532;1255;63965;-87
2023/07/02 01:45:27;;;;;;;9.50;6.60;;;;;;;27.74;100.00;99797.11;106416;1257;61254;-87
2023/07/02 01:48:15;;;;;;;8.20;6.90;;;;;;;27.80;100.00;99795.86;106257;1252;61234;-82
2023/07/02 01:51:03;;;;;;;7.60;6.30;;;;;;;27.79;100.00;99795.38;106663;1252;65844;-86
2023/07/02 01:53:51;;;;;;;7.60;6.20;;;;;;;27.82;100.00;99800.27;106350;1254;61336;-87
2023/07/02 01:56:39;;;;;;;7.90;6.60;;;;;;;27.91;100.00;99800.21;106398;1255;62709;-83
2023/07/02 01:59:27;;;;;;;7.10;6.20;;;;;;;27.90;100.00;99799.02;106455;1259;61250;-86
2023/07/02 02:02:15;;;;;;;8.40;6.10;;;;;;;27.97;100.00;99803.61;106260;1259;61241;-82
2023/07/02 02:05:03;;;;;;;8.30;5.90;;;;;;;27.99;99.56;99802.17;106428;1254;64893;-86
2023/07/02 02:07:51;;;;;;;7.40;6.60;;;;;;;27.97;99.21;99799.69;106436;1257;61326;-86
2023/07/02 02:10:39;;;;;;;7.50;6.70;;;;;;;27.86;99.93;99801.22;106447;1254;63791;-82
2023/07/02 02:13:29;;;;;;;7.10;6.20;;;;;;;27.80;100.00;99802.29;106344;1258;61323;-82
2023/07/02 02:16:16;;;;;;;7.40;6.30;;;;;;;27.81;100.00;99798.67;106394;1253;61189;-82
2023/07/02 02:19:05;;;;;;;9.10;6.60;;;;;;;27.82;100.00;99799.14;106738;1255;65718;-83
2023/07/02 02:21:53;;;;;;;8.70;6.50;;;;;;;27.83;100.00;99798.42;106332;1257;61327;-86
2023/07/02 02:24:40;;;;;;;9.30;6.30;;;;;;;27.94;99.73;99795.55;106253;1259;62798;-83
2023/07/02 02:27:28;;;;;;;7.80;6.10;;;;;;;28.00;99.27;99793.41;106611;1255;61314;-82
2023/07/02 02:30:16;;;;;;;9.30;6.40;;;;;;;27.99;99.54;99793.90;106462;1254;61193;-82
2023/07/02 02:33:04;;;;;;;7.30;6.10;;;;;;;27.98;99.73;99793.75;106359;1257;65827;-85
2023/07/02 02:35:52;;;;;;;10.80;6.00;;;;;;;27.97;99.70;99801.93;106423;1257;61345;-85
2023/07/02 02:38:41;;;;;;;8.30;5.90;;;;;;;28.00;99.34;99802.95;106356;1255;64077;-86
2023/07/02 02:41:29;;;;;;;8.80;6.70;;;;;;;28.03;99.85;99798.44;106287;1257;61336;-83
2023/07/02 02:44:17;;;;;;;8.60;5.80;;;;;;;28.13;100.00;99801.07;106471;1254;61266;-86
2023/07/02 02:47:05;;;;;;;8.10;6.00;;;;;;;28.23;99.86;99801.14;106326;1255;66020;-83
2023/07/02 02:49:53;;;;;;;8.70;7.00;;;;;;;28.23;99.81;99796.97;106227;1257;61297;-82
2023/07/02 02:52:41;;;;;;;8.10;7.20;;;;;;;28.13;100.00;99798.27;106245;1256;63970;-85
2023/07/02 02:55:29;;;;;;;8.90;6.90;;;;;;;28.08;100.00;99794.28;106464;1252;61240;-85
2023/07/02 02:58:17;;;;;;;7.70;6.80;;;;;;;28.10;100.00;99794.44;108288;1255;60070;-82
2023/07/02 03:01:10;;;;;;;7.80;7.00;;;;;;;28.07;100.00;99795.50;106385;1255;66380;-82
2023/07/02 03:03:58;;;;;;;;;;;;;;;28.20;100.00;99794.10;106488;1257;61225;-83
2023/07/02 03:06:46;;;;;;;10.90;7.40;;;;;;;28.22;100.00;99796.27;106554;1256;62801;-86
2023/07/02 03:09:34;;;;;;;9.40;7.20;;;;;;;28.38;100.00;99797.39;106287;1256;61262;-85
2023/07/02 03:12:22;;;;;;;11.30;8.30;;;;;;;28.52;100.00;99793.42;106429;1256;61347;-85
2023/07/02 03:15:14;;;;;;;8.80;7.40;;;;;;;28.65;100.00;99788.94;106307;1256;66011;-82
2023/07/02 03:18:02;;;;;;;9.20;7.90;;;;;;;28.69;100.00;99790.82;106357;1255;61263;-82
2023/07/02 03:20:50;;;;;;;11.40;7.50;;;;;;;28.81;100.00;99793.98;106569;1251;64075;-83
2023/07/02 03:23:38;;;;;;;9.00;7.30;;;;;;;28.84;100.00;99794.09;106448;1257;61239;-87
2023/07/02 03:26:26;;;;;;;9.70;7.70;;;;;;;28.93;100.00;99791.98;106427;1254;61163;-83
2023/07/02 03:29:15;;;;;;;11.30;8.10;;;;;;;29.03;100.00;99795.08;106362;1253;64698;-86
2023/07/02 03:32:03;;;;;;;9.80;7.30;;;;;;;29.12;100.00;99797.06;106425;1258;63218;-86
2023/07/02 03:34:51;;;;;;;9.30;8.00;;;;;;;29.26;100.00;99793.27;106447;1256;64085;-86
2023/07/02 03:37:43;;;;;;;11.40;9.30;;;;;;;29.37;100.00;99792.08;106379;1251;61304;-86
2023/07/02 03:40:31;;;;;;;9.10;7.30;;;;;;;29.41;100.00;99788.88;106594;1257;61873;-86
2023/07/02 03:43:19;;;;;;;9.30;7.90;;;;;;;29.39;100.00;99789.05;106770;1255;66128;-86
2023/07/02 03:46:07;;;;;;;9.30;8.20;;;;;;;29.52;99.26;99786.06;106311;1257;61327;-86
2023/07/02 03:48:55;;;;;;;9.90;8.00;;;;;;;29.59;98.32;99786.92;106397;1254;63924;-86
2023/07/02 03:51:43;;;;;;;11.60;8.20;;;;;;;29.64;96.88;99785.00;106318;1257;61373;-87
2023/07/02 03:54:31;;;;;;;9.90;6.90;;;;;;;29.81;95.77;99785.64;106288;1254;61386;-86
2023/07/02 03:57:19;;;;;;;11.30;7.20;;;;;;;30.00;94.67;99788.06;106515;1257;66126;-87
2023/07/02 04:00:10;;;;;;;9.50;6.80;;;;;;;30.19;93.66;99792.83;106450;1255;61368;-87
2023/07/02 04:03:02;;;;;;;8.00;7.00;;;;;;;30.30;91.62;99791.42;106406;1257;62810;-87
2023/07/02 04:05:50;;;;;;;7.10;6.10;;;;;;;30.38;88.85;99794.66;106283;1254;61116;-86
2023/07/02 04:08:38;;;;;;;7.50;6.70;;;;;;;30.47;86.50;99793.30;106879;1254;61443;-87
2023/07/02 04:11:26;;;;;;;7.70;6.80;;;;;;;30.55;85.93;99792.34;106551;1255;64537;-87
2023/07/02 04:14:13;;;;;;;10.00;7.70;;;;;;;30.72;85.64;99788.87;106726;1253;61355;-83
2023/07/02 04:17:05;;;;;;;11.40;7.80;;;;;;;31.00;84.80;99794.05;106570;1255;237555;-87
2023/07/02 04:19:54;;;;;;;9.30;7.90;;;;;;;31.15;83.07;99795.58;106494;1252;61288;-83
2023/07/02 04:22:43;;;;;;;9.30;8.20;;;;;;;31.19;81.30;99797.75;106453;1257;61157;-87
2023/07/02 04:25:30;;;;;;;8.20;7.20;;;;;;;31.40;79.58;99803.35;106565;1250;65926;-87
2023/07/02 04:28:38;;;;;;;9.80;7.20;;;;;;;31.60;77.32;99804.52;106275;1254;61362;-87
2023/07/02 04:31:26;;;;;;;11.20;7.10;;;;;;;31.62;74.58;99798.27;106452;1254;64207;-83
2023/07/02 04:34:15;;;;;;;9.70;6.90;;;;;;;31.56;71.67;99800.75;106446;1256;61115;-83
2023/07/02 04:37:04;;;;;;;9.10;6.70;;;;;;;31.53;69.67;99800.17;106584;1251;61228;-87
2023/07/02 04:39:52;;;;;;;10.10;6.80;;;;;;;31.58;68.33;99798.44;106482;1257;66095;-86
2023/07/02 04:42:46;;;;;;;8.20;6.70;;;;;;;31.61;66.22;99802.33;106441;1253;62010;-83
2023/07/02 04:45:35;;;;;;;7.80;5.80;;;;;;;31.60;64.53;99802.50;106804;1255;63947;-87
2023/07/02 04:48:23;;;;;;;9.40;6.30;;;;;;;31.67;63.16;99803.55;106957;1254;61195;-83
2023/07/02 04:51:11;;;;;;;7.80;5.60;;;;;;;31.86;64.03;99799.86;106446;1254;61218;-86
2023/07/02 04:53:59;;;;;;;12.20;5.60;;;;;;;31.98;64.16;99800.88;106772;1254;65939;-87
2023/07/02 04:56:48;;;;;;;6.10;5.10;;;;;;;32.14;63.66;99798.30;107530;1256;61269;-84
2023/07/02 04:59:36;;;;;;;6.80;5.30;;;;;;;32.30;62.99;99797.16;106346;1255;64518;-83
2023/07/02 05:02:24;;;;;;;7.70;5.80;;;;;;;32.36;63.00;99789.66;106312;1257;61275;-86
2023/07/02 05:05:12;;;;;;;6.60;5.90;;;;;;;32.50;60.65;99790.24;106557;1257;61228;-84
2023/07/02 05:08:00;;;;;;;7.30;6.40;;;;;;;32.60;58.57;99793.08;106521;1251;66295;-84
2023/07/02 05:10:49;;;;;;;7.60;6.10;;;;;;;32.79;57.84;99798.19;106375;1256;61187;-87
2023/07/02 05:13:39;;;;;;;6.80;5.70;;;;;;;32.93;57.65;99797.93;106299;1257;63872;-84
2023/07/02 05:16:27;;;;;;;10.90;6.20;;;;;;;32.98;57.83;99800.48;106304;1252;61160;-83
2023/07/02 05:19:15;;;;;;;7.80;5.80;;;;;;;33.16;58.66;99799.08;106452;1254;61291;-84
2023/07/02 05:22:03;;;;;;;7.00;5.30;;;;;;;33.28;58.19;99798.30;106288;1254;64644;-87
2023/07/02 10:44:17;;;;;;;5.60;4.90;;;;;;;39.86;37.17;99681.38;106492;1255;61189;-88
2023/07/02 10:47:05;;;;;;;7.20;5.40;;;;;;;39.73;37.41;99678.59;106392;1254;64903;-87
2023/07/02 10:49:53;;;;;;;7.70;5.00;;;;;;;39.85;36.62;99678.50;106374;1254;61754;-85
2023/07/02 10:52:42;;;;;;;5.90;4.30;;;;;;;39.71;35.93;99675.45;106612;1255;63794;-86
2023/07/02 10:55:31;;;;;;;5.70;3.80;;;;;;;39.64;36.87;99674.84;106294;1253;61599;-84
2023/07/02 10:58:20;;;;;;;3.30;3.00;;;;;;;39.76;33.15;99668.45;106613;1255;59825;-87
2023/07/02 11:01:08;;;;;;;3.20;2.90;;;;;;;39.92;29.88;99664.30;106534;1252;66033;-85
2023/07/02 11:04:04;;;;;;;5.10;2.70;;;;;;;40.12;28.67;99661.93;106271;1257;61235;-87
2023/07/02 11:06:53;;;;;;;2.80;2.50;;;;;;;40.28;28.05;99660.44;106486;1253;64048;-86
2023/07/02 11:09:50;;;;;;;2.80;2.50;;;;;;;40.53;27.59;99653.05;106493;1254;61228;-85
2023/07/02 11:12:37;;;;;;;8.70;3.00;;;;;;;40.89;27.05;99651.73;106662;1253;61278;-85
2023/07/02 11:15:25;;;;;;;2.70;2.00;;;;;;;41.09;25.13;99646.45;106480;1251;65995;-86
2023/07/02 11:18:14;;;;;;;3.70;2.30;;;;;;;41.16;24.59;99643.20;106416;1251;61327;-84
2023/07/02 11:21:09;;;;;;;3.10;2.20;;;;;;;41.27;24.83;99638.84;106973;1256;62870;-84
2023/07/02 11:24:04;;;;;;;3.40;2.50;;;;;;;41.41;24.16;99634.77;106990;1253;61442;-84
2023/07/02 11:26:51;;;;;;;2.40;2.20;;;;;;;41.46;23.56;99637.49;106994;1252;61339;-84
2023/07/02 11:29:41;;;;;;;3.70;2.30;;;;;;;41.46;22.39;99633.99;106564;1254;66057;-85
2023/07/02 11:32:29;;;;;;;4.50;2.40;;;;;;;41.25;22.10;99632.89;106400;1254;61157;-84
2023/07/02 11:35:17;;;;;;;2.40;2.10;;;;;;;41.27;22.16;99629.51;106449;1256;62726;-86
2023/07/02 11:38:06;;;;;;;3.70;2.00;;;;;;;41.70;22.39;99624.41;106327;1254;61202;-84
2023/07/02 11:40:54;;;;;;;3.40;2.30;;;;;;;42.08;21.73;99627.38;106453;1251;61204;-85
2023/07/02 11:43:42;;;;;;;7.70;2.90;;;;;;;42.31;21.57;99618.97;106422;1251;64802;-85
2023/07/02 11:46:30;;;;;;;2.40;2.20;;;;;;;42.56;21.14;99617.80;106383;1254;61269;-85
2023/07/02 11:49:18;;;;;;;5.20;2.60;;;;;;;42.60;21.41;99621.92;106287;1254;64076;-85
2023/07/02 11:52:07;;;;;;;2.50;2.00;;;;;;;42.60;21.50;99618.42;106493;1251;61227;-85
2023/07/02 11:54:55;;;;;;;3.20;2.50;;;;;;;42.56;21.77;99617.23;106427;1251;61253;-84
2023/07/02 11:57:43;;;;;;;3.80;2.10;;;;;;;42.41;21.21;99619.41;106432;1253;64673;-85
2023/07/02 12:00:31;;;;;;;3.00;2.50;;;;;;;42.11;20.62;99620.81;106458;1254;61260;-85
2023/07/02 12:03:19;;;;;;;3.10;1.80;;;;;;;41.73;21.21;99613.02;106467;1251;63946;-86
2023/07/02 12:06:07;;;;;;;2.30;2.10;;;;;;;41.59;22.04;99609.73;106570;1251;61262;-85
2023/07/02 12:08:56;;;;;;;6.90;2.20;;;;;;;41.81;22.69;99602.57;106568;1252;61170;-85
2023/07/02 12:11:45;;;;;;;4.40;2.30;;;;;;;42.02;22.20;99605.09;106442;1254;66025;-84
2023/07/02 12:14:35;;;;;;;4.60;2.30;;;;;;;42.07;21.67;99602.34;106591;1253;61388;-83
2023/07/02 12:17:23;;;;;;;2.80;2.40;;;;;;;42.04;22.16;99602.55;106652;1255;62691;-85
2023/07/02 12:20:11;;;;;;;4.60;2.20;;;;;;;41.99;22.01;99598.98;106530;1254;61308;-85
2023/07/02 12:22:59;;;;;;;2.50;2.30;;;;;;;41.91;21.51;99599.17;106451;1253;61314;-85
2023/07/02 12:25:48;;;;;;;2.40;2.00;;;;;;;41.70;21.58;99601.12;106379;1254;66022;-86
2023/07/02 12:28:37;;;;;;;3.50;2.10;;;;;;;41.71;22.14;99599.30;106611;1254;61177;-86
2023/07/02 12:31:25;;;;;;;2.50;2.20;;;;;;;42.17;22.21;99590.40;106478;1252;63925;-86
2023/07/02 12:34:13;;;;;;;3.90;2.50;;;;;;;42.87;21.88;99587.88;106510;1253;61258;-86
2023/07/02 12:37:01;;;;;;;2.70;2.30;;;;;;;43.45;20.67;99583.23;106550;1251;61439;-86
2023/07/02 12:39:49;;;;;;;3.70;2.20;;;;;;;44.15;20.64;99575.01;106393;1252;65910;-86
2023/07/02 12:42:38;;;;;;;2.60;2.10;;;;;;;44.70;19.61;99580.30;106570;1254;61404;-84
2023/07/02 12:45:26;;;;;;;3.00;1.90;;;;;;;44.78;18.46;99584.05;106469;1254;64918;-86
2023/07/02 12:48:14;;;;;;;2.70;2.10;;;;;;;44.55;18.38;99579.60;106570;1253;61352;-86
2023/07/02 12:51:02;;;;;;;6.50;2.00;;;;;;;44.61;18.35;99574.41;106467;1255;61237;-85
2023/07/02 12:53:50;;;;;;;3.80;1.90;;;;;;;45.02;18.40;99570.86;106446;1254;64862;-85
2023/07/02 12:56:39;;;;;;;15.00;3.10;;;;;;;45.47;17.46;99572.92;106496;1253;61296;-86
2023/07/02 12:59:27;;;;;;;4.80;2.20;;;;;;;45.60;16.73;99571.23;106593;1251;63997;-86
2023/07/02 13:02:15;;;;;;;2.80;2.10;;;;;;;45.41;16.64;99569.17;106499;1253;61251;-86
2023/07/02 13:05:04;;;;;;;5.00;2.30;;;;;;;45.11;16.59;99568.88;106480;1256;61292;-84
2023/07/02 13:07:56;;;;;;;4.10;2.40;;;;;;;44.99;17.08;99566.66;106515;1254;66020;-83
2023/07/02 13:10:45;;;;;;;5.50;2.20;;;;;;;44.82;17.01;99562.74;106456;1254;61279;-84
2023/07/02 13:13:35;;;;;;;2.00;1.80;;;;;;;44.75;16.96;99563.59;106468;1254;64126;-82
2023/07/02 13:16:24;;;;;;;1.80;1.70;;;;;;;44.70;17.02;99562.06;106778;1253;61195;-83
2023/07/02 13:19:12;;;;;;;3.20;2.30;;;;;;;44.69;17.02;99564.86;106651;1252;59813;-84
2023/07/02 13:22:00;;;;;;;4.30;2.40;;;;;;;44.38;16.96;99560.30;106622;1253;64716;-83
2023/07/02 13:24:48;;;;;;;3.40;1.90;;;;;;;44.28;17.45;99556.09;106562;1254;61161;-85
2023/07/02 13:27:37;;;;;;;3.80;2.00;;;;;;;44.65;17.43;99552.64;106667;1253;64942;-85
2023/07/02 13:30:25;;;;;;;2.40;1.80;;;;;;;44.94;16.90;99544.55;106509;1254;61279;-85
2023/07/02 13:33:13;;;;;;;17.80;2.70;;;;;;;44.97;16.77;99547.45;106367;1253;61155;-83
2023/07/02 13:36:01;;;;;;;6.40;2.20;;;;;;;44.99;17.04;99544.18;106692;1254;65859;-85
2023/07/02 13:38:49;;;;;;;8.70;2.80;;;;;;;45.31;16.78;99535.26;106530;1253;61343;-84
2023/07/02 13:41:37;;;;;;;4.70;2.00;;;;;;;45.73;16.70;99532.50;106675;1253;65819;-85
2023/07/02 13:44:26;;;;;;;3.70;1.90;;;;;;;46.03;16.68;99531.84;106627;1254;61145;-83
2023/07/02 13:47:13;;;;;;;3.90;2.10;;;;;;;46.11;16.65;99527.96;106410;1254;61188;-82
2023/07/02 13:50:02;;;;;;;2.70;2.10;;;;;;;46.17;16.08;99524.60;106497;1255;66905;-84
2023/07/02 13:52:50;;;;;;;2.10;1.90;;;;;;;45.96;16.16;99525.56;106558;1254;61329;-83
2023/07/02 13:55:38;;;;;;;2.20;2.00;;;;;;;45.86;16.60;99524.92;106507;1251;64546;-83
2023/07/02 13:58:26;;;;;;;2.10;1.90;;;;;;;46.18;16.85;99527.21;106705;1254;61429;-82
2023/07/02 14:01:17;;;;;;;3.70;2.00;;;;;;;46.12;16.41;99525.52;106566;1252;61259;-84
2023/07/02 14:04:05;;;;;;;3.00;1.80;;;;;;;45.83;16.29;99523.80;106663;1251;67288;-82
2023/07/02 14:06:54;;;;;;;3.50;2.00;;;;;;;45.77;16.75;99526.95;106726;1253;61272;-83
2023/07/02 14:09:42;;;;;;;3.30;2.10;;;;;;;45.91;16.08;99526.05;106560;1251;62675;-83
2023/07/02 14:12:30;;;;;;;2.60;2.10;;;;;;;45.98;15.89;99521.56;106375;1254;61293;-82
2023/07/02 14:15:18;;;;;;;3.00;2.10;;;;;;;46.12;16.04;99521.02;106570;1251;61574;-83
2023/07/02 14:18:06;;;;;;;3.40;2.10;;;;;;;46.21;15.84;99521.58;106478;1252;67196;-82
2023/07/02 14:20:54;;;;;;;4.70;2.10;;;;;;;46.15;16.13;99526.79;106589;1254;61349;-84
2023/07/02 14:23:43;;;;;;;4.90;2.00;;;;;;;45.99;16.15;99523.46;106607;1256;64107;-84
2023/07/02 14:26:31;;;;;;;3.80;2.30;;;;;;;45.53;16.13;99521.86;106612;1253;61323;-84
2023/07/02 14:29:19;;;;;;;4.40;2.40;;;;;;;45.27;16.54;99520.85;106528;1254;60339;-84
2023/07/02 14:32:07;;;;;;;3.70;2.10;;;;;;;45.34;16.70;99519.98;106666;1257;65710;-84
2023/07/02 14:34:56;;;;;;;2.20;2.00;;;;;;;45.44;16.76;99521.74;106566;1251;61228;-84
2023/07/02 14:37:44;;;;;;;2.50;2.00;;;;;;;45.56;16.67;99524.04;106650;1253;64382;-85
2023/07/02 14:40:32;;;;;;;3.20;1.90;;;;;;;45.61;16.68;99521.88;106562;1254;61154;-83
2023/07/02 14:43:25;;;;;;;5.50;2.20;;;;;;;45.38;16.69;99522.17;106697;1254;61221;-83
2023/07/02 14:46:13;;;;;;;4.90;2.30;;;;;;;45.17;16.80;99520.58;106601;1256;65910;-84
2023/07/02 14:49:01;;;;;;;3.90;2.20;;;;;;;45.05;16.89;99518.39;106503;1253;61355;-84
2023/07/02 14:51:49;;;;;;;3.80;2.10;;;;;;;44.91;17.10;99523.95;106599;1253;63928;-84
2023/07/02 14:54:37;;;;;;;6.10;2.10;;;;;;;44.54;17.70;99523.15;106770;1256;62634;-84
2023/07/02 14:57:25;;;;;;;3.80;2.30;;;;;;;44.03;17.91;99527.17;106628;1252;61234;-85
2023/07/02 15:00:14;;;;;;;5.00;2.20;;;;;;;43.48;18.57;99531.05;106741;1257;65834;-83
2023/07/02 15:03:02;;;;;;;4.40;2.40;;;;;;;43.31;19.00;99533.91;106511;1256;61256;-83
2023/07/02 15:05:51;;;;;;;2.80;2.20;;;;;;;43.11;18.90;99533.95;106582;1255;64079;-83
2023/07/02 15:08:40;;;;;;;4.20;2.30;;;;;;;42.82;18.86;99535.60;106621;1252;61427;-83
2023/07/02 15:11:28;;;;;;;2.60;2.30;;;;;;;42.50;19.02;99531.55;106551;1251;61114;-84
2023/07/02 15:14:20;;;;;;;5.10;2.50;;;;;;;42.10;19.51;99533.73;106585;1256;75050;-83
2023/07/02 15:17:08;;;;;;;4.10;2.50;;;;;;;42.02;19.88;99536.45;106503;1255;61237;-82
2023/07/02 15:19:58;;;;;;;4.00;2.50;;;;;;;41.92;20.21;99532.21;106326;1254;63877;-82
2023/07/02 15:22:46;;;;;;;3.00;2.40;;;;;;;41.76;20.09;99527.89;106706;1254;62506;-87
2023/07/02 15:25:34;;;;;;;2.90;2.40;;;;;;;41.70;20.33;99534.29;106634;1253;62816;-83
2023/07/02 15:28:22;;;;;;;2.90;2.40;;;;;;;41.59;20.25;99536.80;106542;1255;65843;-83
2023/07/02 15:31:10;;;;;;;5.80;2.40;;;;;;;41.41;20.38;99537.92;106831;1254;61342;-86
2023/07/02 15:33:58;;;;;;;5.80;2.20;;;;;;;41.21;20.67;99530.91;106537;1254;62918;-85
2023/07/02 15:36:46;;;;;;;4.50;2.60;;;;;;;41.08;20.89;99532.18;106463;1254;61262;-85
2023/07/02 15:39:34;;;;;;;2.40;2.20;;;;;;;41.08;20.92;99532.25;106429;1251;61180;-85
2023/07/02 15:42:24;;;;;;;4.50;2.20;;;;;;;41.14;21.17;99528.27;106582;1255;66033;-86
2023/07/02 15:45:11;;;;;;;3.50;2.70;;;;;;;41.12;21.05;99528.79;106640;1257;61211;-85
2023/07/02 15:47:59;;;;;;;4.90;2.50;;;;;;;41.03;21.23;99530.14;106467;1254;63569;-85
2023/07/02 15:50:47;;;;;;;2.70;2.30;;;;;;;40.92;21.45;99532.89;106425;1254;61322;-85
2023/07/02 15:53:38;;;;;;;3.60;2.50;;;;;;;40.81;21.69;99533.23;106434;1255;61162;-86
2023/07/02 15:56:26;;;;;;;2.90;2.20;;;;;;;40.77;21.43;99534.98;106516;1253;66047;-86
2023/07/02 15:59:14;;;;;;;2.60;2.40;;;;;;;40.72;21.67;99533.33;106440;1253;61248;-86
2023/07/02 16:02:02;;;;;;;5.30;2.70;;;;;;;40.59;21.92;99535.30;106514;1253;63830;-86
2023/07/02 16:04:50;;;;;;;2.60;2.40;;;;;;;40.46;22.20;99536.05;106413;1255;61369;-86
2023/07/02 16:07:39;;;;;;;3.30;2.50;;;;;;;40.42;22.10;99533.83;106495;1254;62351;-85
2023/07/02 16:10:28;;;;;;;3.10;2.80;;;;;;;40.39;22.06;99533.39;106821;1255;66323;-85
2023/07/02 16:13:15;;;;;;;3.30;2.80;;;;;;;40.36;21.93;99529.98;106550;1256;61100;-85
2023/07/02 16:16:04;;;;;;;4.90;2.70;;;;;;;40.37;21.82;99531.09;106619;1253;302538;-86
2023/07/02 16:18:51;;;;;;;5.80;2.60;;;;;;;40.36;21.92;99530.14;106509;1252;61422;-85
2023/07/02 16:21:40;;;;;;;2.80;2.60;;;;;;;40.38;21.90;99528.08;106548;1251;61276;-83
2023/07/02 16:24:30;;;;;;;4.70;2.90;;;;;;;40.31;21.92;99528.68;106478;1256;67060;-85
2023/07/02 16:27:19;;;;;;;5.30;3.00;;;;;;;40.17;22.38;99524.80;106466;1254;61448;-83
2023/07/02 16:30:07;;;;;;;3.20;2.50;;;;;;;40.01;22.47;99526.38;106479;1254;64094;-82
2023/07/02 16:32:55;;;;;;;3.70;2.70;;;;;;;39.87;22.81;99529.23;106417;1257;61180;-82
2023/07/02 16:35:44;;;;;;;4.10;2.70;;;;;;;39.82;22.90;99534.40;106483;1254;61343;-83
2023/07/02 16:38:32;;;;;;;6.20;3.30;;;;;;;39.80;22.97;99536.83;106649;1254;64787;-82
2023/07/02 16:41:21;;;;;;;3.90;2.40;;;;;;;39.65;23.30;99535.05;106440;1255;61259;-82
2023/07/02 16:44:09;;;;;;;6.40;3.10;;;;;;;39.54;23.32;99534.61;106567;1253;64598;-83
2023/07/02 16:46:57;;;;;;;7.10;2.90;;;;;;;39.37;23.42;99534.75;106414;1254;61325;-83
2023/07/02 16:49:46;;;;;;;4.50;3.00;;;;;;;39.22;23.57;99536.26;106505;1254;59861;-83
2023/07/02 16:52:34;;;;;;;5.20;3.50;;;;;;;39.14;23.69;99534.38;106511;1256;65995;-83
2023/07/02 16:55:22;;;;;;;5.80;2.70;;;;;;;39.05;24.17;99534.44;106386;1254;61352;-83
2023/07/02 16:58:10;;;;;;;6.70;3.00;;;;;;;38.88;24.33;99535.54;106444;1254;62824;-83
2023/07/02 17:01:07;;;;;;;5.30;2.60;;;;;;;38.76;24.41;99535.15;106452;1256;61228;-83
2023/07/02 17:03:54;;;;;;;8.00;3.10;;;;;;;38.69;24.79;99539.19;106613;1251;61215;-84
2023/07/02 17:06:46;;;;;;;3.80;2.80;;;;;;;38.61;25.39;99540.21;106300;1255;66138;-85
2023/07/02 17:09:39;;;;;;;2.60;2.40;;;;;;;38.37;25.74;99546.61;106627;1254;61243;-83
2023/07/02 17:12:29;;;;;;;3.20;2.90;;;;;;;38.19;26.24;99543.75;106643;1255;64400;-87
2023/07/02 17:15:17;;;;;;;2.90;2.60;;;;;;;37.95;26.58;99543.00;106748;1256;61255;-84
2023/07/02 17:18:04;;;;;;;3.00;2.70;;;;;;;37.77;26.33;99545.83;106451;1255;61176;-85
2023/07/02 17:20:52;;;;;;;7.70;3.00;;;;;;;37.67;26.24;99548.27;106543;1252;64577;-84
2023/07/02 17:23:40;;;;;;;6.40;3.20;;;;;;;37.57;26.39;99547.36;106324;1254;61218;-81
2023/07/02 17:26:28;;;;;;;3.70;3.00;;;;;;;37.51;26.58;99547.41;106260;1253;64088;-83
2023/07/02 17:29:17;;;;;;;4.70;3.10;;;;;;;37.45;26.55;99550.66;106607;1255;61338;-83
2023/07/02 17:32:06;;;;;;;3.50;3.00;;;;;;;37.32;26.57;99556.14;106472;1256;61183;-84
2023/07/02 17:34:54;;;;;;;4.60;2.90;;;;;;;37.15;27.07;99560.02;106467;1255;66009;-85
2023/07/02 17:37:43;;;;;;;4.10;2.70;;;;;;;37.06;27.08;99570.73;106432;1254;61269;-84
2023/07/02 17:40:32;;;;;;;6.90;2.80;;;;;;;37.01;27.42;99580.07;106303;1256;64127;-81
2023/07/02 17:43:21;;;;;;;3.00;2.80;;;;;;;36.95;27.72;99585.16;106310;1254;61304;-80
2023/07/02 17:46:09;;;;;;;4.10;2.80;;;;;;;36.85;28.15;99584.78;106683;1251;61195;-80
2023/07/02 17:48:57;;;;;;;5.30;3.10;;;;;;;36.75;28.65;99590.30;106604;1251;66134;-80
2023/07/02 17:51:45;;;;;;;3.50;2.80;;;;;;;36.63;28.74;99587.94;106581;1256;61122;-84
2023/07/02 17:54:39;;;;;;;6.70;3.40;;;;;;;36.53;29.18;99593.02;106546;1254;63886;-85
2023/07/02 17:57:27;;;;;;;4.90;3.90;;;;;;;36.40;29.75;99600.54;106293;1254;61422;-85
2023/07/02 18:00:16;;;;;;;5.20;3.80;;;;;;;36.30;30.26;99605.77;106411;1256;61336;-85
2023/07/02 18:03:04;;;;;;;3.60;3.10;;;;;;;36.07;30.41;99609.33;106572;1254;66813;-83
2023/07/02 18:05:52;;;;;;;6.00;3.00;;;;;;;35.80;30.10;99611.77;106459;1254;61247;-83
2023/07/02 18:08:40;;;;;;;6.00;3.10;;;;;;;35.90;29.74;99608.55;106435;1254;64675;-84
2023/07/02 18:11:29;;;;;;;5.60;3.00;;;;;;;36.06;29.39;99608.36;106468;1256;61112;-84
2023/07/02 18:14:17;;;;;;;3.10;2.70;;;;;;;36.13;29.12;99610.73;106320;1254;61231;-84
2023/07/02 18:17:05;;;;;;;4.20;3.00;;;;;;;36.19;29.08;99612.91;106362;1253;64808;-84
2023/07/02 18:19:55;;;;;;;2.80;2.50;;;;;;;36.20;29.04;99612.73;106376;1255;61131;-83
2023/07/02 18:22:43;;;;;;;3.80;3.00;;;;;;;36.21;29.01;99617.01;106454;1254;62586;-80